| time (UTC) | temp C | wind direction | speed KPH | gust KPH | rain 1hr cm | rain 24hr cm | rain mn cm | humidity % | barometer mb |
| 20260507223016 | 13 | 255 | 4.8 | 20.9 | 0.00 | 0.00 | 0.00 | 66 | 1015.5 |
| 20260507222018 | 13 | 289 | 4.8 | 11.3 | 0.00 | 0.00 | 0.00 | 65 | 1015.3 |
| 20260507221019 | 13 | 269 | 6.4 | 14.5 | 0.00 | 0.00 | 0.00 | 65 | 1015.2 |
| 20260507220022 | 13 | 260 | 6.4 | 12.9 | 0.00 | 0.00 | 0.00 | 64 | 1015.2 |
| 20260507215039 | 13 | 281 | 3.2 | 11.3 | 0.00 | 0.00 | 0.00 | 63 | 1015.2 |
| 20260507214042 | 13 | 272 | 4.8 | 12.9 | 0.00 | 0.00 | 0.00 | 63 | 1015.0 |
| 20260507213022 | 13 | 274 | 3.2 | 11.3 | 0.00 | 0.00 | 0.00 | 63 | 1015.1 |
| 20260507212022 | 13 | 230 | 1.6 | 9.7 | 0.00 | 0.00 | 0.00 | 65 | 1015.0 |
| 20260507211018 | 13 | 230 | 1.6 | 3.2 | 0.00 | 0.00 | 0.00 | 64 | 1015.1 |
| 20260507210041 | 14 | 240 | 0.0 | 1.6 | 0.00 | 0.00 | 0.00 | 63 | 1015.0 |
| 20260507205038 | 14 | 289 | 0.0 | 1.6 | 0.00 | 0.00 | 0.00 | 62 | 1015.0 |
| 20260507204017 | 15 | 223 | 1.6 | 4.8 | 0.00 | 0.00 | 0.00 | 61 | 1014.7 |
| 20260507203021 | 15 | 228 | 1.6 | 3.2 | 0.00 | 0.00 | 0.00 | 60 | 1014.5 |
| 20260507202020 | 15 | 218 | 3.2 | 12.9 | 0.00 | 0.00 | 0.00 | 60 | 1014.5 |
| 20260507201021 | 15 | 214 | 3.2 | 6.4 | 0.00 | 0.00 | 0.00 | 60 | 1014.4 |
| 20260507200019 | 15 | 223 | 1.6 | 11.3 | 0.00 | 0.00 | 0.00 | 60 | 1014.3 |
| 20260507195023 | 15 | 218 | 3.2 | 11.3 | 0.00 | 0.00 | 0.00 | 60 | 1014.3 |
| 20260507194020 | 15 | 225 | 3.2 | 11.3 | 0.00 | 0.00 | 0.00 | 59 | 1014.1 |
| 20260507193046 | 15 | 217 | 6.4 | 20.9 | 0.00 | 0.00 | 0.00 | 58 | 1014.1 |
| 20260507192038 | 15 | 225 | 6.4 | 17.7 | 0.00 | 0.00 | 0.00 | 58 | 1013.9 |
| 20260507191020 | 16 | 218 | 4.8 | 14.5 | 0.00 | 0.00 | 0.00 | 58 | 1013.9 |
| 20260507190021 | 16 | 240 | 4.8 | 12.9 | 0.00 | 0.00 | 0.00 | 57 | 1013.7 |
| 20260507185018 | 16 | 221 | 4.8 | 16.1 | 0.00 | 0.00 | 0.00 | 56 | 1013.5 |
| 20260507184020 | 16 | 217 | 4.8 | 12.9 | 0.00 | 0.00 | 0.00 | 55 | 1013.4 |
| 20260507183022 | 16 | 215 | 6.4 | 16.1 | 0.00 | 0.00 | 0.00 | 54 | 1013.3 |
| 20260507182022 | 16 | 214 | 3.2 | 11.3 | 0.00 | 0.00 | 0.00 | 54 | 1013.2 |
| 20260507181020 | 16 | 224 | 6.4 | 14.5 | 0.00 | 0.00 | 0.00 | 53 | 1013.1 |
| 20260507180021 | 16 | 222 | 6.4 | 20.9 | 0.00 | 0.00 | 0.00 | 52 | 1013.0 |
| 20260507175018 | 16 | 218 | 6.4 | 24.1 | 0.00 | 0.00 | 0.00 | 52 | 1012.9 |
| 20260507174017 | 16 | 218 | 6.4 | 16.1 | 0.00 | 0.00 | 0.00 | 52 | 1012.8 |
| 20260507173022 | 17 | 230 | 6.4 | 17.7 | 0.00 | 0.00 | 0.00 | 52 | 1012.8 |
| 20260507172021 | 17 | 234 | 3.2 | 11.3 | 0.00 | 0.00 | 0.00 | 51 | 1012.6 |
| 20260507171019 | 17 | 225 | 8.0 | 16.1 | 0.00 | 0.00 | 0.00 | 50 | 1012.4 |
| 20260507170021 | 17 | 215 | 9.7 | 22.5 | 0.00 | 0.00 | 0.00 | 49 | 1012.3 |
| 20260507165039 | 17 | 222 | 4.8 | 14.5 | 0.00 | 0.00 | 0.00 | 48 | 1012.3 |
| 20260507164021 | 17 | 202 | 4.8 | 12.9 | 0.00 | 0.00 | 0.00 | 47 | 1012.3 |
| 20260507163020 | 18 | 219 | 4.8 | 16.1 | 0.00 | 0.00 | 0.00 | 46 | 1012.1 |
| 20260507162020 | 18 | 228 | 6.4 | 22.5 | 0.00 | 0.00 | 0.00 | 45 | 1012.2 |
| 20260507161020 | 18 | 219 | 6.4 | 14.5 | 0.00 | 0.00 | 0.00 | 45 | 1012.0 |
| 20260507160018 | 18 | 224 | 4.8 | 12.9 | 0.00 | 0.00 | 0.00 | 44 | 1012.0 |
| 20260507155018 | 18 | 221 | 6.4 | 17.7 | 0.00 | 0.00 | 0.00 | 44 | 1011.9 |
| 20260507154017 | 18 | 222 | 3.2 | 11.3 | 0.00 | 0.00 | 0.00 | 44 | 1012.0 |
| 20260507153020 | 19 | 173 | 3.2 | 11.3 | 0.00 | 0.00 | 0.00 | 44 | 1011.6 |
| 20260507152022 | 19 | 173 | 3.2 | 9.7 | 0.00 | 0.00 | 0.00 | 44 | 1011.5 |
| 20260507151017 | 19 | 222 | 6.4 | 14.5 | 0.00 | 0.00 | 0.00 | 43 | 1011.6 |
| 20260507150020 | 19 | 218 | 4.8 | 16.1 | 0.00 | 0.00 | 0.00 | 43 | 1011.6 |
| 20260507145024 | 19 | 228 | 3.2 | 11.3 | 0.00 | 0.00 | 0.00 | 43 | 1011.5 |
| 20260507144018 | 20 | 226 | 3.2 | 9.7 | 0.00 | 0.00 | 0.00 | 43 | 1011.5 |
| 20260507143020 | 20 | 224 | 3.2 | 9.7 | 0.00 | 0.00 | 0.00 | 42 | 1011.5 |
| 20260507142019 | 20 | 230 | 6.4 | 17.7 | 0.00 | 0.00 | 0.00 | 40 | 1011.5 |
| 20260507141040 | 20 | 240 | 4.8 | 11.3 | 0.00 | 0.00 | 0.00 | 40 | 1011.6 |
| 20260507140017 | 20 | 232 | 1.6 | 6.4 | 0.00 | 0.00 | 0.00 | 40 | 1011.6 |
| 20260507135024 | 20 | 290 | 4.8 | 14.5 | 0.00 | 0.00 | 0.00 | 39 | 1011.5 |
| 20260507134020 | 21 | 310 | 3.2 | 11.3 | 0.00 | 0.00 | 0.00 | 40 | 1011.5 |
| 20260507133022 | 20 | 304 | 3.2 | 9.7 | 0.00 | 0.00 | 0.00 | 40 | 1011.5 |
| 20260507132022 | 20 | 290 | 1.6 | 4.8 | 0.00 | 0.00 | 0.00 | 38 | 1011.7 |
| 20260507131021 | 20 | 281 | 3.2 | 11.3 | 0.00 | 0.00 | 0.00 | 41 | 1011.9 |
| 20260507130024 | 20 | 283 | 3.2 | 9.7 | 0.00 | 0.00 | 0.00 | 41 | 1011.8 |
| 20260507125018 | 20 | 252 | 3.2 | 9.7 | 0.00 | 0.00 | 0.00 | 40 | 1011.9 |
| 20260507124020 | 20 | 326 | 4.8 | 12.9 | 0.00 | 0.00 | 0.00 | 41 | 1011.8 |
| 20260507123020 | 20 | 160 | 3.2 | 14.5 | 0.00 | 0.00 | 0.00 | 40 | 1011.9 |
| 20260507122021 | 21 | 359 | 1.6 | 4.8 | 0.00 | 0.00 | 0.00 | 39 | 1012.0 |
| 20260507121019 | 21 | 215 | 4.8 | 12.9 | 0.00 | 0.00 | 0.00 | 39 | 1012.1 |
| 20260507120019 | 21 | 230 | 6.4 | 17.7 | 0.00 | 0.00 | 0.00 | 40 | 1012.1 |
| 20260507114752 | 20 | 210 | 4.8 | 9.7 | 0.00 | 0.00 | 0.00 | 42 | 1012.0 |
| 20260507114522 | 20 | 258 | 4.8 | 14.5 | 0.00 | 0.00 | 0.00 | 42 | 1012.3 |
| 20260507113519 | 19 | 273 | 4.8 | 16.1 | 0.00 | 0.00 | 0.00 | 43 | 1012.4 |
| 20260507112520 | 19 | 244 | 4.8 | 14.5 | 0.00 | 0.00 | 0.00 | 43 | 1012.5 |
| 20260507111518 | 19 | 251 | 4.8 | 17.7 | 0.00 | 0.00 | 0.00 | 44 | 1012.5 |
| 20260507110519 | 18 | 237 | 4.8 | 16.1 | 0.00 | 0.00 | 0.00 | 46 | 1012.7 |
| 20260507105519 | 18 | 277 | 6.4 | 24.1 | 0.00 | 0.00 | 0.00 | 46 | 1012.6 |
| 20260507104422 | 18 | 305 | 6.4 | 17.7 | 0.00 | 0.00 | 0.00 | 46 | 1012.9 |
| 20260507104019 | 18 | 262 | 9.7 | 22.5 | 0.00 | 0.00 | 0.00 | 48 | 1012.7 |
| 20260507103023 | 18 | 228 | 8.0 | 25.7 | 0.00 | 0.00 | 0.00 | 47 | 1012.9 |
| 20260507102021 | 18 | 238 | 6.4 | 24.1 | 0.00 | 0.00 | 0.00 | 48 | 1013.0 |
| 20260507101021 | 17 | 280 | 6.4 | 25.7 | 0.00 | 0.00 | 0.00 | 50 | 1013.0 |
| 20260507100019 | 17 | 227 | 4.8 | 14.5 | 0.00 | 0.00 | 0.00 | 50 | 1013.0 |
| 20260507095042 | 17 | 279 | 8.0 | 30.6 | 0.00 | 0.00 | 0.00 | 51 | 1013.0 |
| 20260507094016 | 17 | 267 | 9.7 | 25.7 | 0.00 | 0.00 | 0.00 | 51 | 1013.0 |
| 20260507093019 | 17 | 248 | 6.4 | 24.1 | 0.00 | 0.00 | 0.00 | 51 | 1013.0 |
| 20260507092037 | 17 | 243 | 8.0 | 22.5 | 0.00 | 0.00 | 0.00 | 51 | 1012.8 |
| 20260507091018 | 16 | 254 | 8.0 | 24.1 | 0.00 | 0.00 | 0.00 | 51 | 1012.8 |
| 20260507090017 | 16 | 241 | 8.0 | 25.7 | 0.00 | 0.00 | 0.00 | 52 | 1012.8 |
| 20260507085021 | 17 | 256 | 8.0 | 25.7 | 0.00 | 0.00 | 0.00 | 53 | 1012.6 |
| 20260507084021 | 16 | 251 | 8.0 | 20.9 | 0.00 | 0.00 | 0.00 | 52 | 1012.5 |
| 20260507083018 | 16 | 256 | 8.0 | 25.7 | 0.00 | 0.00 | 0.00 | 54 | 1012.5 |
| 20260507082020 | 16 | 272 | 9.7 | 33.8 | 0.00 | 0.00 | 0.00 | 55 | 1012.4 |
| 20260507081020 | 15 | 276 | 11.3 | 35.4 | 0.00 | 0.00 | 0.00 | 56 | 1012.4 |
| 20260507080020 | 15 | 239 | 8.0 | 25.7 | 0.00 | 0.00 | 0.00 | 56 | 1012.3 |
| 20260507075038 | 15 | 253 | 9.7 | 30.6 | 0.00 | 0.00 | 0.00 | 57 | 1012.3 |
| 20260507074036 | 15 | 258 | 9.7 | 40.2 | 0.00 | 0.00 | 0.00 | 58 | 1012.2 |
| 20260507073042 | 15 | 269 | 11.3 | 25.7 | 0.00 | 0.00 | 0.00 | 58 | 1012.1 |
| 20260507072020 | 15 | 226 | 9.7 | 27.4 | 0.00 | 0.00 | 0.00 | 58 | 1011.9 |
| 20260507071023 | 15 | 258 | 9.7 | 25.7 | 0.00 | 0.00 | 0.00 | 58 | 1011.9 |
| 20260507070021 | 15 | 230 | 6.4 | 22.5 | 0.00 | 0.00 | 0.00 | 60 | 1011.8 |
| 20260507065023 | 14 | 247 | 9.7 | 33.8 | 0.00 | 0.00 | 0.00 | 61 | 1011.9 |
| 20260507064021 | 14 | 256 | 8.0 | 20.9 | 0.00 | 0.00 | 0.00 | 63 | 1012.0 |
| 20260507063021 | 13 | 272 | 6.4 | 22.5 | 0.00 | 0.00 | 0.00 | 64 | 1012.0 |
| 20260507062017 | 13 | 259 | 6.4 | 17.7 | 0.00 | 0.00 | 0.00 | 65 | 1011.8 |
| 20260507061021 | 13 | 251 | 6.4 | 24.1 | 0.00 | 0.00 | 0.00 | 65 | 1011.8 |
| 20260507060038 | 13 | 248 | 8.0 | 17.7 | 0.00 | 0.00 | 0.00 | 65 | 1011.7 |
| 20260507055020 | 13 | 245 | 6.4 | 22.5 | 0.00 | 0.00 | 0.00 | 65 | 1011.4 |
| 20260507054022 | 13 | 261 | 6.4 | 25.7 | 0.00 | 0.00 | 0.00 | 65 | 1011.5 |
| 20260507053021 | 13 | 263 | 6.4 | 14.5 | 0.00 | 0.00 | 0.00 | 66 | 1011.4 |
| 20260507052019 | 13 | 245 | 4.8 | 17.7 | 0.00 | 0.00 | 0.00 | 67 | 1011.4 |
| 20260507051017 | 13 | 233 | 4.8 | 16.1 | 0.00 | 0.00 | 0.00 | 67 | 1011.3 |
| 20260507050019 | 13 | 237 | 6.4 | 16.1 | 0.00 | 0.00 | 0.00 | 67 | 1011.2 |
| 20260507045017 | 13 | 256 | 4.8 | 17.7 | 0.00 | 0.00 | 0.00 | 67 | 1011.0 |
| 20260507044021 | 13 | 260 | 4.8 | 17.7 | 0.00 | 0.00 | 0.00 | 67 | 1011.0 |
| 20260507043024 | 13 | 254 | 6.4 | 22.5 | 0.00 | 0.00 | 0.00 | 66 | 1010.7 |
| 20260507042020 | 13 | 243 | 6.4 | 14.5 | 0.00 | 0.00 | 0.00 | 66 | 1010.7 |
| 20260507041042 | 13 | 249 | 4.8 | 14.5 | 0.00 | 0.00 | 0.00 | 67 | 1010.6 |
| 20260507040023 | 13 | 232 | 4.8 | 12.9 | 0.00 | 0.00 | 0.00 | 67 | 1010.6 |
| 20260507035021 | 13 | 243 | 3.2 | 12.9 | 0.00 | 0.00 | 0.00 | 67 | 1010.5 |
| 20260507034020 | 13 | 239 | 4.8 | 16.1 | 0.00 | 0.00 | 0.00 | 66 | 1010.4 |
| 20260507033022 | 13 | 242 | 6.4 | 25.7 | 0.00 | 0.00 | 0.00 | 66 | 1010.3 |
| 20260507032021 | 13 | 262 | 6.4 | 20.9 | 0.00 | 0.00 | 0.00 | 65 | 1010.1 |
| 20260507031018 | 13 | 256 | 6.4 | 22.5 | 0.00 | 0.00 | 0.00 | 64 | 1010.2 |
| 20260507030016 | 13 | 254 | 8.0 | 29.0 | 0.00 | 0.00 | 0.00 | 64 | 1010.1 |
| 20260507025020 | 13 | 261 | 8.0 | 22.5 | 0.00 | 0.00 | 0.00 | 63 | 1010.1 |
| 20260507024021 | 13 | 262 | 8.0 | 22.5 | 0.00 | 0.00 | 0.00 | 63 | 1009.9 |
| 20260507023023 | 13 | 258 | 6.4 | 24.1 | 0.00 | 0.00 | 0.00 | 64 | 1009.8 |
| 20260507022019 | 13 | 250 | 6.4 | 24.1 | 0.00 | 0.00 | 0.00 | 65 | 1009.9 |
| 20260507021021 | 13 | 263 | 6.4 | 20.9 | 0.00 | 0.00 | 0.00 | 65 | 1009.9 |
| 20260507020042 | 13 | 245 | 4.8 | 14.5 | 0.00 | 0.00 | 0.00 | 65 | 1009.8 |
| 20260507015021 | 13 | 254 | 6.4 | 22.5 | 0.00 | 0.00 | 0.00 | 66 | 1009.8 |
| 20260507014020 | 13 | 244 | 6.4 | 24.1 | 0.00 | 0.00 | 0.00 | 66 | 1009.8 |
| 20260507013020 | 13 | 277 | 4.8 | 24.1 | 0.00 | 0.00 | 0.00 | 66 | 1009.8 |
| 20260507012045 | 13 | 232 | 6.4 | 25.7 | 0.00 | 0.00 | 0.00 | 67 | 1009.6 |
| 20260507010022 | 14 | 253 | 3.2 | 17.7 | 0.00 | 0.00 | 0.00 | 68 | 1009.3 |
| 20260507005018 | 14 | 249 | 8.0 | 27.4 | 0.00 | 0.00 | 0.00 | 68 | 1009.2 |
| 20260507004023 | 14 | 249 | 8.0 | 22.5 | 0.00 | 0.00 | 0.00 | 68 | 1009.0 |
| 20260507003019 | 14 | 244 | 6.4 | 20.9 | 0.00 | 0.00 | 0.00 | 67 | 1009.2 |
| 20260507002020 | 15 | 259 | 8.0 | 27.4 | 0.00 | 0.00 | 0.00 | 67 | 1009.1 |
| 20260507001101 | 15 | 248 | 8.0 | 27.4 | 0.00 | 0.00 | 0.00 | 67 | 1009.0 |
| 20260507000018 | 15 | 237 | 9.7 | 27.4 | 0.00 | 0.00 | 0.00 | 67 | 1009.0 |
| 20260506235017 | 15 | 247 | 8.0 | 24.1 | 0.00 | 0.00 | 0.00 | 67 | 1008.8 |
| 20260506234039 | 15 | 244 | 11.3 | 29.0 | 0.00 | 0.00 | 0.00 | 67 | 1008.6 |
| 20260506233018 | 15 | 251 | 8.0 | 27.4 | 0.00 | 0.00 | 0.00 | 67 | 1008.4 |
| 20260506232039 | 15 | 220 | 11.3 | 24.1 | 0.00 | 0.00 | 0.00 | 67 | 1008.4 |
| 20260506231019 | 15 | 246 | 9.7 | 25.7 | 0.00 | 0.00 | 0.00 | 68 | 1008.2 |
| 20260506230022 | 15 | 236 | 9.7 | 35.4 | 0.00 | 0.00 | 0.00 | 70 | 1008.0 |
| 20260506225018 | 15 | 259 | 8.0 | 27.4 | 0.00 | 0.00 | 0.00 | 71 | 1007.8 |
| 20260506224020 | 15 | 259 | 9.7 | 22.5 | 0.00 | 0.00 | 0.00 | 70 | 1007.7 |